createdAt,value
2023-04-01T00:06:05.759Z,2.70
2023-04-01T00:21:05.552Z,2.80
2023-04-01T00:36:05.420Z,3.20
2023-04-01T00:51:05.267Z,3.40
2023-04-01T01:06:05.083Z,3.40
2023-04-01T01:21:04.929Z,4.30
2023-04-01T01:36:04.817Z,4.70
2023-04-01T01:51:04.618Z,5.00
2023-04-01T02:06:04.509Z,5.30
2023-04-01T02:21:04.276Z,5.90
2023-04-01T02:36:04.240Z,6.40
2023-04-01T02:51:03.992Z,3.80
2023-04-01T03:06:03.807Z,3.40
2023-04-01T03:21:03.661Z,3.50
2023-04-01T03:36:03.533Z,3.80
2023-04-01T03:51:03.334Z,3.90
2023-04-01T04:06:03.155Z,4.10
2023-04-01T04:21:03.008Z,4.90
2023-04-01T04:36:02.883Z,5.90
2023-04-01T04:51:02.700Z,6.20
2023-04-01T05:06:02.574Z,6.40
2023-04-01T05:21:02.486Z,5.50
2023-04-01T05:36:02.243Z,5.50
2023-04-01T05:51:02.113Z,5.60
2023-04-01T06:06:01.866Z,5.20
2023-04-01T06:21:01.714Z,5.40
2023-04-01T06:36:01.972Z,6.10
2023-04-01T06:51:01.464Z,7.50
2023-04-01T07:06:01.707Z,7.40
2023-04-01T07:21:01.228Z,7.20
2023-04-01T07:36:01.051Z,7.20
2023-04-01T07:51:00.890Z,7.40
2023-04-01T08:06:00.644Z,6.10
2023-04-01T08:21:00.527Z,6.00
2023-04-01T08:36:00.397Z,4.50
2023-04-01T08:51:00.125Z,8.40
2023-04-01T09:05:59.926Z,11.30
2023-04-01T09:20:59.856Z,11.50
2023-04-01T09:35:59.659Z,11.60
2023-04-01T09:50:59.502Z,10.80
2023-04-01T10:05:59.310Z,11.00
2023-04-01T10:20:59.133Z,11.50
2023-04-01T10:35:58.991Z,10.80
2023-04-01T10:50:58.808Z,11.40
2023-04-01T11:05:58.793Z,9.20
2023-04-01T11:20:58.531Z,6.40
2023-04-01T11:35:58.329Z,5.70
2023-04-01T11:50:58.233Z,4.40
2023-04-01T12:05:57.997Z,4.10
2023-04-01T12:20:57.837Z,3.50
2023-04-01T12:35:57.904Z,3.80
2023-04-01T12:50:57.816Z,5.40
2023-04-01T13:05:57.560Z,6.40
2023-04-01T13:20:57.168Z,4.30
2023-04-01T13:35:57.147Z,9.60
2023-04-01T13:50:56.846Z,9.90
2023-04-01T14:05:56.687Z,6.70
2023-04-01T14:20:56.519Z,7.30
2023-04-01T14:35:56.391Z,8.10
2023-04-01T14:50:56.203Z,6.40
2023-04-01T15:05:56.086Z,5.60
2023-04-01T15:20:55.901Z,5.40
2023-04-01T15:35:55.760Z,6.50
2023-04-01T15:50:55.595Z,6.50
2023-04-01T16:05:55.435Z,5.30
2023-04-01T16:20:55.267Z,6.30
2023-04-01T16:35:55.204Z,8.40
2023-04-01T16:50:56.021Z,7.60
2023-04-01T17:05:55.561Z,8.80
2023-04-01T17:20:54.660Z,6.90
2023-04-01T17:35:54.588Z,6.50
2023-04-01T17:50:54.355Z,8.60
2023-04-01T18:05:54.209Z,8.60
2023-04-01T18:20:54.142Z,7.20
2023-04-01T18:35:53.852Z,5.40
2023-04-01T18:50:53.679Z,5.50
2023-04-01T19:05:53.539Z,5.20
2023-04-01T19:20:53.414Z,5.00
2023-04-01T19:35:53.287Z,6.00
2023-04-01T19:50:53.043Z,6.70
2023-04-01T20:05:52.888Z,6.80
2023-04-01T20:20:52.834Z,6.20
2023-04-01T20:35:52.570Z,6.00
2023-04-01T20:50:52.515Z,7.30
2023-04-01T21:05:52.238Z,6.50
2023-04-01T21:20:52.095Z,6.70
2023-04-01T21:35:52.037Z,6.60
2023-04-01T21:50:51.752Z,6.20
2023-04-01T22:05:51.564Z,5.70
2023-04-01T22:20:51.426Z,6.10
2023-04-01T22:35:51.307Z,5.50
2023-04-01T22:50:51.103Z,4.30
2023-04-01T23:05:50.934Z,3.90
2023-04-01T23:20:50.781Z,4.00
2023-04-01T23:35:50.679Z,3.70
2023-04-01T23:50:50.455Z,3.80
